Time;durP1;ratioP1;P1;durP2;ratioP2;P2;SDS_P1;SDS_P2;PMS_P1;PMS_P2;Temp;Humidity;BMP_temperature;BMP_pressure;BME280_temperature;BME280_humidity;BME280_pressure;Samples;Min_cycle;Max_cycle;Signal;HPM_P1;HPM_P2
2022/05/24 00:01:30;;;;;;;8.03;3.02;;;;;;;10.14;63.72;97227.77;1688450;85;21055;-75
2022/05/24 00:03:57;;;;;;;4.20;2.50;;;;;;;10.12;64.83;97234.05;1673920;84;21069;-75
2022/05/24 00:06:26;;;;;;;4.12;2.62;;;;;;;10.11;63.88;97228.36;1715785;84;21510;-76
2022/05/24 00:08:53;;;;;;;4.30;2.67;;;;;;;10.10;63.83;97226.20;1716565;82;21000;-76
2022/05/24 00:11:19;;;;;;;4.78;2.42;;;;;;;10.10;64.33;97221.34;1717189;83;21489;-76
2022/05/24 00:13:45;;;;;;;3.90;2.90;;;;;;;10.09;63.94;97226.25;1717517;83;20941;-76
2022/05/24 00:16:12;;;;;;;6.92;2.80;;;;;;;10.08;64.73;97229.83;1717442;82;21504;-75
2022/05/24 00:18:38;;;;;;;5.33;2.60;;;;;;;10.01;64.00;97227.88;1699641;84;21021;-76
2022/05/24 00:21:06;;;;;;;3.80;2.92;;;;;;;9.94;64.24;97233.00;1674087;83;21023;-75
2022/05/24 00:23:33;;;;;;;4.55;3.30;;;;;;;9.89;64.60;97235.84;1670304;86;21129;-75
2022/05/24 00:26:09;;;;;;;5.92;2.70;;;;;;;9.75;65.15;97235.91;1675762;84;21071;-74
2022/05/24 00:28:37;;;;;;;4.62;2.60;;;;;;;9.67;65.08;97240.63;1681663;84;21021;-94
2022/05/24 00:31:08;;;;;;;2.85;2.33;;;;;;;9.55;67.22;97251.20;1671996;84;21441;-95
2022/05/24 00:33:35;;;;;;;2.85;2.52;;;;;;;9.54;66.44;97249.97;1624919;84;21003;-94
2022/05/24 00:36:01;;;;;;;4.28;2.70;;;;;;;9.57;67.03;97249.83;1668250;84;20997;-95
2022/05/24 00:38:36;;;;;;;2.85;2.40;;;;;;;9.54;66.34;97253.45;1649575;84;21070;-95
2022/05/24 00:41:22;;;;;;;5.08;2.47;;;;;;;9.48;66.31;97262.47;1672002;84;21053;-94
2022/05/24 00:43:54;;;;;;;6.97;2.87;;;;;;;9.46;66.64;97262.13;1670781;84;21458;-93
2022/05/24 00:46:24;;;;;;;4.22;2.52;;;;;;;9.45;65.69;97253.34;1699974;84;21080;-94
2022/05/24 00:49:00;;;;;;;4.35;2.42;;;;;;;9.43;65.75;97247.23;1699624;84;21154;-95
2022/05/24 00:51:49;;;;;;;6.35;2.98;;;;;;;9.45;66.92;97250.70;1629211;84;21527;-95
2022/05/24 00:54:16;;;;;;;5.28;2.77;;;;;;;9.40;67.59;97245.17;1696603;84;21024;-94
2022/05/24 00:56:54;;;;;;;3.83;2.40;;;;;;;9.40;66.08;97240.75;1646262;84;21053;-94
2022/05/24 00:59:39;;;;;;;4.25;2.80;;;;;;;9.41;66.48;97237.19;1668351;84;21060;-94
2022/05/24 01:02:09;;;;;;;5.80;3.10;;;;;;;9.34;66.40;97236.55;1673198;84;21052;-94
2022/05/24 01:04:38;;;;;;;5.87;2.33;;;;;;;9.31;66.21;97231.84;1699587;83;21035;-94
2022/05/24 01:07:05;;;;;;;4.03;2.75;;;;;;;9.30;66.50;97230.12;1668660;84;21551;-94
2022/05/24 01:09:49;;;;;;;4.75;2.90;;;;;;;9.27;67.38;97220.52;1645524;86;21100;-94
2022/05/24 01:12:32;;;;;;;3.83;2.50;;;;;;;9.24;67.09;97224.58;1672385;86;21031;-94
2022/05/24 01:15:02;;;;;;;3.30;2.55;;;;;;;9.18;67.38;97221.70;1645395;86;21147;-93
2022/05/24 01:17:29;;;;;;;3.60;2.35;;;;;;;9.17;67.19;97218.66;1644953;86;21007;-95
2022/05/24 01:19:58;;;;;;;4.65;2.33;;;;;;;9.10;67.37;97219.33;1623947;86;21055;-95
2022/05/24 01:22:48;;;;;;;3.77;2.60;;;;;;;9.09;66.62;97222.03;1642889;86;20999;-93
2022/05/24 01:25:36;;;;;;;3.75;2.52;;;;;;;9.07;66.85;97221.23;1663266;85;21082;-94
2022/05/24 01:28:09;;;;;;;6.17;2.37;;;;;;;9.06;67.06;97215.55;1671719;86;21007;-95
2022/05/24 01:30:36;;;;;;;4.87;2.83;;;;;;;9.04;66.90;97210.31;1671491;86;21039;-94
2022/05/24 01:36:09;;;;;;;5.80;2.60;;;;;;;8.98;66.86;97206.09;1644932;86;21007;-94
2022/05/24 01:38:46;;;;;;;5.55;2.60;;;;;;;8.94;68.00;97210.24;1645023;86;21476;-93
2022/05/24 01:41:20;;;;;;;4.85;2.20;;;;;;;8.89;67.71;97214.35;1644667;86;21035;-94
2022/05/24 01:43:53;;;;;;;3.60;2.37;;;;;;;8.88;68.18;97219.72;1663648;85;21055;-95
2022/05/24 01:46:23;;;;;;;3.45;2.30;;;;;;;8.89;67.59;97225.40;1658042;84;21049;-94
2022/05/24 01:48:56;;;;;;;2.70;2.10;;;;;;;8.84;68.82;97221.58;1696041;84;21112;-94
2022/05/24 01:51:29;;;;;;;5.35;2.72;;;;;;;8.71;69.83;97228.63;1666095;85;21065;-95
2022/05/24 01:54:03;;;;;;;3.83;2.50;;;;;;;8.64;69.69;97224.93;1694751;85;21017;-96
2022/05/24 01:56:45;;;;;;;4.80;2.55;;;;;;;8.45;70.17;97231.67;1693658;85;21486;-95
2022/05/24 01:59:16;;;;;;;3.97;2.27;;;;;;;8.36;71.00;97241.66;1662662;85;21442;-94
2022/05/24 02:01:55;;;;;;;4.55;2.52;;;;;;;8.24;71.53;97239.84;1666292;85;21022;-93
2022/05/24 02:04:24;;;;;;;2.75;2.42;;;;;;;8.16;71.74;97230.84;1670239;85;21057;-93
2022/05/24 02:07:07;;;;;;;2.90;2.20;;;;;;;8.17;70.00;97235.20;1666318;85;21088;-91
2022/05/24 02:09:41;;;;;;;3.42;2.60;;;;;;;8.16;70.65;97225.56;1687531;85;21042;-95
2022/05/24 02:12:09;;;;;;;4.20;2.60;;;;;;;8.19;69.60;97229.41;1662191;85;21025;-95
2022/05/24 02:14:43;;;;;;;2.50;2.27;;;;;;;8.24;69.68;97218.72;1694146;85;21463;-94
2022/05/24 02:17:21;;;;;;;6.05;2.45;;;;;;;8.25;71.04;97215.16;1665521;85;21088;-95
2022/05/24 02:19:53;;;;;;;3.95;2.10;;;;;;;8.25;69.35;97212.52;1693249;85;20986;-93
2022/05/24 02:22:25;;;;;;;2.30;2.10;;;;;;;8.24;69.05;97212.12;1685338;84;21100;-94
2022/05/24 02:25:00;;;;;;;3.05;2.12;;;;;;;8.26;70.96;97215.55;1642404;85;21001;-95
2022/05/24 02:27:29;;;;;;;5.58;2.87;;;;;;;8.24;70.95;97211.24;1685524;84;21064;-95
2022/05/24 02:29:58;;;;;;;3.85;2.40;;;;;;;8.23;69.62;97215.67;1692796;84;21012;-94
2022/05/24 02:32:35;;;;;;;3.22;2.35;;;;;;;8.25;69.44;97212.52;1618781;85;21116;-96
2022/05/24 02:35:02;;;;;;;4.78;2.90;;;;;;;8.28;69.80;97205.83;1666206;84;21039;-94
2022/05/24 02:37:32;;;;;;;4.53;2.37;;;;;;;8.27;69.36;97212.00;1693275;85;21031;-94
2022/05/24 02:42:48;;;;;;;5.30;3.22;;;;;;;8.29;70.20;97207.99;1686838;84;21010;-92
2022/05/24 02:45:16;;;;;;;4.95;2.72;;;;;;;8.26;69.03;97205.00;1694376;84;21048;-93
2022/05/24 02:47:44;;;;;;;4.42;2.55;;;;;;;8.25;69.39;97207.23;1686415;84;21009;-95
2022/05/24 02:50:14;;;;;;;3.22;2.33;;;;;;;8.30;69.01;97208.39;1636116;84;21496;-91
2022/05/24 02:52:41;;;;;;;4.60;2.40;;;;;;;8.26;68.99;97205.00;1663566;85;21076;-91
2022/05/24 02:55:09;;;;;;;3.17;2.30;;;;;;;8.24;68.87;97212.56;1635374;86;20969;-94
2022/05/24 02:57:38;;;;;;;6.00;2.80;;;;;;;8.23;69.14;97209.52;1635160;86;21024;-94
2022/05/24 03:00:09;;;;;;;2.50;2.15;;;;;;;8.25;69.37;97198.44;1614213;86;21052;-93
2022/05/24 03:02:36;;;;;;;4.47;2.50;;;;;;;8.26;68.94;97193.59;1613107;86;21100;-94
2022/05/24 03:05:03;;;;;;;3.87;2.52;;;;;;;8.30;69.14;97191.23;1654946;85;21055;-95
2022/05/24 03:10:15;;;;;;;;;;;;;;;8.37;68.84;97187.93;1686598;84;21042;-94
2022/05/24 03:15:28;;;;;;;5.60;2.50;;;;;;;8.43;68.88;97188.59;1700745;84;21015;-94
2022/05/24 03:17:54;;;;;;;6.60;2.50;;;;;;;8.47;69.20;97182.74;1701001;83;20955;-94
2022/05/24 03:20:21;;;;;;;4.12;2.70;;;;;;;8.48;68.37;97184.49;1670407;84;21057;-94
2022/05/24 03:22:48;;;;;;;7.03;2.30;;;;;;;8.49;69.02;97187.98;1700360;83;22191;-93
2022/05/24 03:25:18;;;;;;;3.60;2.10;;;;;;;8.53;68.99;97194.91;1668023;84;21042;-94
2022/05/24 03:27:50;;;;;;;4.70;2.50;;;;;;;8.56;68.51;97189.06;1695230;84;20987;-94
2022/05/24 03:30:19;;;;;;;4.87;2.37;;;;;;;8.56;68.93;97190.38;1672286;84;21018;-95
2022/05/24 03:32:46;;;;;;;2.83;2.20;;;;;;;8.64;68.61;97195.40;1670550;84;21055;-95
2022/05/24 03:35:12;;;;;;;4.50;2.60;;;;;;;8.73;68.55;97192.04;1651157;85;20993;-94
2022/05/24 03:37:40;;;;;;;4.22;2.05;;;;;;;8.76;68.14;97183.54;1684892;83;21021;-95
2022/05/24 03:40:08;;;;;;;3.60;2.10;;;;;;;8.83;68.19;97181.10;1659943;84;21066;-93
2022/05/24 03:42:36;;;;;;;6.08;2.05;;;;;;;8.87;67.78;97190.22;1693780;84;21448;-93
2022/05/24 03:45:04;;;;;;;3.62;2.50;;;;;;;8.92;67.91;97194.44;1700559;83;20995;-94
2022/05/24 03:47:31;;;;;;;3.95;2.22;;;;;;;8.97;67.62;97196.93;1671808;84;21086;-94
2022/05/24 03:49:58;;;;;;;4.00;2.27;;;;;;;9.09;67.77;97192.95;1709761;82;21053;-95
2022/05/24 03:52:24;;;;;;;6.90;2.50;;;;;;;9.12;67.16;97192.85;1710550;84;21044;-94
2022/05/24 03:54:51;;;;;;;5.97;2.45;;;;;;;9.16;67.20;97180.37;1749206;82;21546;-94
2022/05/24 04:00:04;;;;;;;6.72;2.47;;;;;;;9.33;66.96;97191.64;1685050;84;21038;-93
2022/05/24 04:02:32;;;;;;;5.75;2.65;;;;;;;9.37;67.29;97199.87;1691539;83;21080;-94
2022/05/24 04:05:01;;;;;;;7.28;2.60;;;;;;;9.37;67.09;97208.67;1704295;84;21651;-93
2022/05/24 04:07:29;;;;;;;5.95;2.58;;;;;;;9.37;66.92;97211.77;1714095;81;21056;-95
2022/05/24 04:09:59;;;;;;;3.52;2.40;;;;;;;9.45;66.94;97215.44;1713290;82;21056;-94
2022/05/24 04:12:26;;;;;;;4.78;2.30;;;;;;;9.53;66.75;97207.22;1682008;84;21091;-94
2022/05/24 04:14:55;;;;;;;3.83;2.40;;;;;;;9.64;66.95;97208.53;1694921;82;21041;-94
2022/05/24 04:17:27;;;;;;;5.78;3.20;;;;;;;9.79;66.67;97203.56;1746020;82;21052;-91
2022/05/24 04:19:54;;;;;;;4.65;2.52;;;;;;;9.87;66.28;97208.56;1696559;82;21050;-94
2022/05/24 04:22:21;;;;;;;5.80;2.75;;;;;;;9.94;66.04;97220.64;1707639;84;21441;-92
2022/05/24 04:24:48;;;;;;;3.85;2.90;;;;;;;10.01;65.75;97226.08;1721098;82;20989;-92
2022/05/24 04:27:15;;;;;;;4.17;2.55;;;;;;;10.08;65.42;97237.29;1661645;84;21020;-93
2022/05/24 04:29:42;;;;;;;7.80;2.85;;;;;;;10.09;65.37;97238.16;1697656;82;21021;-93
2022/05/24 04:32:10;;;;;;;3.98;2.60;;;;;;;10.08;65.57;97239.09;1661796;84;21009;-92
2022/05/24 04:34:37;;;;;;;7.85;2.90;;;;;;;10.16;65.59;97230.36;1696035;82;21067;-92
2022/05/24 04:37:08;;;;;;;8.48;2.72;;;;;;;10.26;65.25;97235.69;1721373;82;21473;-92
2022/05/24 04:39:38;;;;;;;3.58;2.45;;;;;;;10.34;65.13;97245.95;1748395;82;21526;-91
2022/05/24 04:42:20;;;;;;;5.08;2.70;;;;;;;10.41;65.00;97250.55;1721569;82;21347;-92
2022/05/24 04:45:03;;;;;;;5.30;2.75;;;;;;;10.40;64.93;97249.70;1720947;82;21449;-92
2022/05/24 04:47:31;;;;;;;5.00;2.45;;;;;;;10.46;64.99;97245.11;1717706;82;21503;-90
2022/05/24 04:50:01;;;;;;;7.97;2.80;;;;;;;10.53;64.87;97238.17;1651810;85;21060;-90
2022/05/24 04:52:35;;;;;;;3.12;2.45;;;;;;;10.63;64.74;97234.66;1703434;84;21434;-91
2022/05/24 04:55:05;;;;;;;5.80;2.45;;;;;;;10.74;64.75;97239.96;1708231;81;21053;-84
2022/05/24 04:57:34;;;;;;;5.33;2.60;;;;;;;10.83;64.29;97239.12;1730304;83;21494;-93
2022/05/24 05:00:01;;;;;;;6.22;2.98;;;;;;;10.88;64.18;97242.88;1733508;83;21068;-91
2022/05/24 05:02:28;;;;;;;6.15;2.70;;;;;;;10.93;64.29;97236.92;1689757;83;21742;-90
2022/05/24 05:04:58;;;;;;;4.33;2.92;;;;;;;11.02;64.20;97234.35;1731669;81;21085;-90
2022/05/24 05:07:28;;;;;;;8.33;2.80;;;;;;;11.14;63.83;97236.94;1692622;82;21014;-96
2022/05/24 05:09:58;;;;;;;4.78;2.80;;;;;;;11.16;63.67;97239.49;1689298;83;21145;-92
2022/05/24 05:12:32;;;;;;;3.40;2.85;;;;;;;11.24;63.82;97244.48;1712304;83;21589;-96
2022/05/24 05:15:18;;;;;;;;;;;;;;;;;;;;;
2022/05/24 05:17:45;;;;;;;4.97;2.70;;;;;;;11.30;63.80;97241.06;1744993;82;21022;-90
2022/05/24 05:20:15;;;;;;;6.33;3.08;;;;;;;11.40;64.16;97240.66;1752753;82;21018;-86
2022/05/24 05:22:41;;;;;;;5.40;2.67;;;;;;;11.50;63.86;97239.30;1720241;83;20996;-89
2022/05/24 05:25:09;;;;;;;4.40;2.65;;;;;;;11.62;63.62;97238.76;1758777;82;21049;-88
2022/05/24 05:27:36;;;;;;;4.78;2.65;;;;;;;11.70;63.49;97241.05;1720398;83;21586;-88
2022/05/24 05:39:14;;;;;;;4.10;2.77;;;;;;;12.36;62.48;97241.53;1696603;84;21157;-85
2022/05/24 05:41:42;;;;;;;4.42;2.62;;;;;;;12.46;62.23;97252.55;1695562;83;21017;-94
2022/05/24 05:44:24;;;;;;;;;;;;;;;;;;;;;
2022/05/24 05:46:54;;;;;;;13.22;3.47;;;;;;;12.75;60.95;97241.42;1711054;81;21084;-89
2022/05/24 05:49:30;;;;;;;7.28;2.70;;;;;;;12.93;61.24;97234.30;1730013;81;21024;-92
2022/05/24 06:02:07;;;;;;;8.63;4.75;;;;;;;13.81;59.27;97224.82;1613724;87;21476;-93
2022/05/24 06:05:02;;;;;;;;;;;;;;;;;;;;;
2022/05/24 06:10:53;;;;;;;13.15;6.42;;;;;;;14.19;58.09;97221.41;1549735;90;21099;-93
2022/05/24 06:13:30;;;;;;;25.12;7.47;;;;;;;14.34;57.89;97220.56;1587953;88;21133;-94
2022/05/24 06:16:08;;;;;;;20.25;7.90;;;;;;;14.47;57.71;97222.04;1607086;87;21109;-94
2022/05/24 06:18:56;;;;;;;13.05;6.22;;;;;;;14.61;57.69;97211.02;1598783;88;21160;-92
2022/05/24 06:21:25;;;;;;;14.60;5.45;;;;;;;14.71;56.95;97211.35;1592149;85;21016;-90
2022/05/24 06:24:18;;;;;;;;;;;;;;;;;;;;;
2022/05/24 06:27:09;;;;;;;22.52;6.80;;;;;;;14.73;56.27;97210.77;1627077;88;21100;-93
2022/05/24 06:32:54;;;;;;;;;;;;;;;14.92;56.68;97215.92;1703011;82;21460;-85
2022/05/24 06:35:23;;;;;;;13.00;5.30;;;;;;;15.10;56.50;97221.08;1702273;82;20183;-87
2022/05/24 06:37:49;;;;;;;12.10;4.62;;;;;;;15.09;56.59;97228.71;1700293;82;21102;-86
2022/05/24 06:40:28;;;;;;;14.28;5.12;;;;;;;15.07;56.41;97233.30;1673273;85;21004;-88
2022/05/24 06:42:57;;;;;;;13.48;5.70;;;;;;;15.05;56.35;97237.38;1653647;84;21003;-86
2022/05/24 06:45:26;;;;;;;12.35;4.35;;;;;;;15.17;56.54;97239.79;1723162;83;21139;-88
2022/05/24 06:47:52;;;;;;;15.50;4.45;;;;;;;15.31;56.47;97240.27;1691958;85;21103;-91
2022/05/24 06:50:20;;;;;;;16.48;4.87;;;;;;;15.38;56.17;97240.30;1688540;85;21121;-89
2022/05/24 06:52:47;;;;;;;13.60;4.87;;;;;;;15.44;56.25;97245.25;1686561;84;21017;-91
2022/05/24 06:55:14;;;;;;;12.68;5.08;;;;;;;15.46;56.57;97248.30;1686894;84;20993;-85
2022/05/24 06:57:40;;;;;;;14.95;9.33;;;;;;;15.50;56.53;97261.84;1682084;84;21621;-84
2022/05/24 07:03:05;;;;;;;6.25;4.03;;;;;;;15.68;56.01;97266.05;1718317;83;21020;-87
2022/05/24 07:05:31;;;;;;;8.55;4.10;;;;;;;15.81;55.77;97256.80;1712529;84;21052;-90
2022/05/24 07:08:00;;;;;;;11.30;3.98;;;;;;;15.97;55.59;97247.83;1739439;82;21469;-85
2022/05/24 07:10:29;;;;;;;5.15;4.05;;;;;;;16.15;55.38;97247.13;1687059;85;21056;-84
2022/05/24 07:13:05;;;;;;;7.28;4.45;;;;;;;16.35;55.19;97249.84;1715440;83;20996;-89
2022/05/24 07:15:32;;;;;;;11.08;4.70;;;;;;;16.54;54.78;97256.67;1711006;84;21714;-91
2022/05/24 07:17:59;;;;;;;7.40;3.90;;;;;;;16.70;54.85;97256.48;1714891;83;21156;-76
2022/05/24 07:20:26;;;;;;;6.70;4.50;;;;;;;16.83;54.39;97251.67;1721842;82;21004;-77
2022/05/24 07:22:54;;;;;;;6.37;4.00;;;;;;;16.92;54.20;97237.67;1721506;82;21100;-75
2022/05/24 07:25:22;;;;;;;5.80;3.98;;;;;;;16.99;53.46;97230.92;1721541;83;21071;-75
2022/05/24 07:27:48;;;;;;;13.88;3.70;;;;;;;17.18;54.10;97239.58;1714955;82;21047;-75
2022/05/24 07:30:15;;;;;;;7.80;4.55;;;;;;;17.35;53.90;97239.74;1708508;83;22251;-75
2022/05/24 07:32:43;;;;;;;6.10;4.28;;;;;;;17.52;53.82;97228.69;1686386;85;21491;-75
2022/05/24 07:35:10;;;;;;;7.75;4.55;;;;;;;17.71;53.33;97228.73;1699786;83;21063;-75
2022/05/24 07:37:36;;;;;;;10.93;4.42;;;;;;;17.88;52.92;97221.30;1696256;83;21009;-75
2022/05/24 07:48:06;;;;;;;6.08;3.90;;;;;;;18.61;51.83;97209.33;1703172;83;21019;-76
2022/05/24 07:50:33;;;;;;;6.40;4.70;;;;;;;18.77;51.00;97204.14;1700869;83;21071;-75
2022/05/24 07:52:59;;;;;;;10.78;3.85;;;;;;;18.90;50.98;97202.71;1726580;83;21050;-76
2022/05/24 07:55:25;;;;;;;6.33;4.05;;;;;;;19.05;50.62;97204.75;1727153;82;21086;-75
2022/05/24 07:57:52;;;;;;;8.13;3.55;;;;;;;19.15;50.35;97207.09;1722655;83;21020;-76
2022/05/24 08:00:19;;;;;;;7.97;3.83;;;;;;;19.30;50.20;97205.02;1717654;82;21066;-76
2022/05/24 08:02:51;;;;;;;8.68;3.47;;;;;;;19.45;50.25;97206.14;1724319;83;21011;-77
2022/05/24 08:05:18;;;;;;;11.85;3.92;;;;;;;19.55;49.03;97200.91;1710563;82;21024;-78
2022/05/24 08:07:49;;;;;;;5.03;3.17;;;;;;;19.65;49.39;97204.06;1712586;83;21087;-77
2022/05/24 08:10:16;;;;;;;6.53;3.22;;;;;;;19.78;49.31;97203.09;1725843;83;20976;-76
2022/05/24 08:12:43;;;;;;;7.58;3.37;;;;;;;19.84;48.89;97192.34;1691965;84;21057;-79
2022/05/24 08:15:11;;;;;;;5.03;3.22;;;;;;;19.91;47.74;97186.34;1662684;86;21058;-78
2022/05/24 08:17:37;;;;;;;7.80;5.45;;;;;;;19.91;47.69;97180.10;1687512;85;21000;-78
2022/05/24 08:20:09;;;;;;;6.45;3.12;;;;;;;19.91;48.09;97182.31;1693746;83;20983;-78
2022/05/24 08:22:34;;;;;;;4.50;3.05;;;;;;;19.89;47.44;97179.38;1678586;85;21008;-78
2022/05/24 08:25:00;;;;;;;5.35;2.58;;;;;;;19.88;47.31;97167.77;1687004;85;21566;-79
2022/05/24 08:27:27;;;;;;;11.80;2.65;;;;;;;19.79;47.16;97177.91;1686951;85;21023;-78
2022/05/24 08:29:53;;;;;;;6.95;2.77;;;;;;;19.77;47.29;97169.13;1693369;84;21011;-79
2022/05/24 08:32:20;;;;;;;4.08;2.42;;;;;;;19.76;46.88;97165.58;1687621;85;21071;-78
2022/05/24 08:34:48;;;;;;;4.15;2.25;;;;;;;19.72;46.93;97165.45;1661391;85;21437;-77
2022/05/24 08:37:14;;;;;;;3.95;2.45;;;;;;;19.75;46.85;97171.07;1684881;85;20964;-77
2022/05/24 08:39:41;;;;;;;8.90;2.52;;;;;;;19.87;47.04;97163.84;1675885;85;21508;-79
2022/05/24 08:42:13;;;;;;;3.08;2.27;;;;;;;19.91;46.78;97163.49;1692321;85;21032;-76
2022/05/24 08:50:18;;;;;;;5.83;2.05;;;;;;;20.12;46.69;97149.29;1675145;83;21024;-85
2022/05/24 08:52:53;;;;;;;4.00;2.30;;;;;;;20.17;45.94;97143.52;1674753;84;21060;-88
2022/05/24 08:55:20;;;;;;;4.37;3.02;;;;;;;20.26;45.55;97136.03;1643177;85;21058;-86
2022/05/24 08:57:50;;;;;;;6.90;2.52;;;;;;;20.41;45.62;97134.38;1689713;85;21080;-91
2022/05/24 09:00:38;;;;;;;4.53;2.05;;;;;;;20.58;45.04;97132.96;1689936;84;21006;-87
2022/05/24 09:03:07;;;;;;;30.20;3.12;;;;;;;20.58;44.31;97127.09;1686407;84;21119;-87
2022/05/24 09:05:39;;;;;;;7.78;2.62;;;;;;;20.46;44.09;97131.33;1698286;84;21110;-91
2022/05/24 09:08:25;;;;;;;3.10;2.08;;;;;;;20.31;43.60;97127.59;1687029;84;21480;-89
2022/05/24 09:11:10;;;;;;;6.50;4.45;;;;;;;20.28;44.42;97131.88;1677949;83;21452;-93
2022/05/24 09:14:05;;;;;;;3.83;2.00;;;;;;;20.40;44.68;97135.37;1688743;83;21085;-89
2022/05/24 09:16:35;;;;;;;5.53;2.12;;;;;;;20.48;44.21;97134.25;1662789;86;21061;-90
2022/05/24 09:19:05;;;;;;;6.17;2.62;;;;;;;20.52;43.54;97130.28;1692178;84;21070;-87
2022/05/24 09:21:36;;;;;;;10.55;2.98;;;;;;;20.52;41.91;97118.17;1691468;85;21517;-87
2022/05/24 09:24:17;;;;;;;9.75;2.65;;;;;;;20.61;42.92;97121.08;1690424;85;21068;-88
2022/05/24 09:27:07;;;;;;;6.12;2.42;;;;;;;20.71;43.00;97120.66;1694286;84;21066;-89
2022/05/24 09:29:38;;;;;;;4.37;2.22;;;;;;;20.86;43.12;97120.33;1694782;84;21048;-91
2022/05/24 09:32:09;;;;;;;12.60;2.62;;;;;;;21.07;42.98;97121.69;1684387;85;21084;-87
2022/05/24 09:34:38;;;;;;;11.18;2.47;;;;;;;21.30;42.20;97118.33;1686786;84;22080;-89
2022/05/24 09:37:10;;;;;;;5.15;2.35;;;;;;;21.55;41.93;97116.15;1686953;85;21019;-82
2022/05/24 09:39:39;;;;;;;8.58;2.42;;;;;;;21.75;41.32;97116.24;1686611;85;21074;-87
2022/05/24 09:42:14;;;;;;;7.67;2.83;;;;;;;21.90;42.01;97118.06;1678809;83;21458;-78
2022/05/24 09:44:47;;;;;;;5.20;2.33;;;;;;;22.02;41.97;97122.84;1679964;85;21107;-83
2022/05/24 09:47:22;;;;;;;11.38;6.37;;;;;;;22.17;41.78;97123.28;1692412;83;21025;-79
2022/05/24 09:49:49;;;;;;;6.87;3.08;;;;;;;22.31;41.93;97116.62;1659015;85;21367;-82
2022/05/24 09:52:17;;;;;;;4.95;2.87;;;;;;;22.49;40.95;97119.95;1683022;85;21017;-81
2022/05/24 09:54:55;;;;;;;7.08;3.05;;;;;;;22.65;41.28;97114.02;1661940;86;21048;-82
2022/05/24 09:57:25;;;;;;;9.98;2.70;;;;;;;22.86;40.75;97116.55;1662571;86;21056;-82
2022/05/24 10:00:03;;;;;;;10.15;3.20;;;;;;;23.07;40.45;97122.25;1663557;86;21063;-82
2022/05/24 10:02:33;;;;;;;4.45;2.70;;;;;;;23.21;39.97;97128.55;1683084;84;21516;-82
2022/05/24 10:05:02;;;;;;;3.27;2.55;;;;;;;23.36;39.53;97124.53;1693388;83;21073;-84
2022/05/24 10:07:34;;;;;;;17.45;3.55;;;;;;;23.39;39.51;97118.84;1708963;83;21551;-82
2022/05/24 10:10:07;;;;;;;10.20;4.08;;;;;;;23.43;38.69;97123.82;1709693;84;21110;-81
2022/05/24 10:12:35;;;;;;;;;;;;;;;23.33;38.89;97115.73;1711881;84;21508;-83
2022/05/24 10:15:08;;;;;;;3.58;2.90;;;;;;;23.40;39.12;97113.78;1706201;84;20134;-83
2022/05/24 10:17:44;;;;;;;47.80;35.52;;;;;;;23.49;38.51;97119.66;1692028;84;21016;-86
2022/05/24 10:20:20;;;;;;;20.52;11.00;;;;;;;23.43;38.15;97118.41;1690669;85;21198;-83
2022/05/24 10:23:07;;;;;;;7.47;3.22;;;;;;;23.55;38.38;97119.56;1691794;85;21064;-79
2022/05/24 10:25:49;;;;;;;15.95;4.78;;;;;;;23.68;38.10;97113.31;1697947;84;21071;-81
2022/05/24 10:28:39;;;;;;;5.00;2.95;;;;;;;23.73;38.42;97112.85;1707751;84;21018;-81
2022/05/24 10:31:43;;;;;;;7.10;3.20;;;;;;;23.86;38.06;97115.19;1709327;84;21050;-84
2022/05/24 10:40:37;;;;;;;4.55;3.00;;;;;;;23.78;36.98;97113.25;1675156;85;21108;-77
2022/05/24 10:43:42;;;;;;;3.27;2.50;;;;;;;23.97;36.90;97111.44;1692087;85;21005;-74
2022/05/24 10:46:15;;;;;;;4.40;3.50;;;;;;;24.44;35.03;97101.42;1664378;86;21477;-74
2022/05/24 10:48:48;;;;;;;7.33;4.15;;;;;;;25.05;35.45;97110.55;1664051;86;21012;-75
2022/05/24 10:51:38;;;;;;;10.63;4.92;;;;;;;25.57;34.26;97106.14;1661196;86;21061;-74
2022/05/24 10:54:12;;;;;;;4.05;3.00;;;;;;;26.06;34.40;97106.45;1674145;85;21069;-74
2022/05/24 10:56:45;;;;;;;4.37;3.12;;;;;;;26.98;34.03;97100.62;1659183;85;21055;-74
2022/05/24 10:59:32;;;;;;;7.03;3.15;;;;;;;27.53;32.60;97102.20;1681289;85;21053;-74
2022/05/24 11:02:02;;;;;;;6.62;3.60;;;;;;;28.11;31.25;97097.84;1686727;85;21044;-73
2022/05/24 11:04:44;;;;;;;4.85;2.72;;;;;;;28.89;31.13;97096.98;1676180;85;21004;-73
2022/05/24 11:07:14;;;;;;;4.35;2.40;;;;;;;29.62;29.23;97099.66;1679093;85;21013;-72
2022/05/24 11:09:44;;;;;;;3.87;2.47;;;;;;;30.13;28.67;97097.48;1680453;85;21048;-72
2022/05/24 11:12:14;;;;;;;3.92;2.92;;;;;;;30.85;28.00;97092.64;1669217;85;21468;-70
2022/05/24 11:14:50;;;;;;;7.05;3.65;;;;;;;31.66;26.36;97090.95;1704589;83;21444;-73
2022/05/24 11:17:18;;;;;;;2.08;1.85;;;;;;;32.03;25.31;97092.94;1701097;83;21016;-71
2022/05/24 11:19:49;;;;;;;3.27;2.20;;;;;;;31.82;24.90;97095.25;1671281;85;21017;-69
2022/05/24 11:22:20;;;;;;;3.27;2.22;;;;;;;31.40;24.66;97090.63;1721349;83;21020;-71
2022/05/24 11:25:02;;;;;;;3.83;2.67;;;;;;;30.78;23.38;97093.09;1721453;83;21047;-71
2022/05/24 11:27:44;;;;;;;3.37;2.98;;;;;;;30.43;25.13;97089.70;1701207;83;20996;-71
2022/05/24 11:30:29;;;;;;;7.55;3.30;;;;;;;30.39;25.67;97092.50;1718634;83;20964;-71
2022/05/24 11:33:11;;;;;;;11.55;3.33;;;;;;;29.85;23.61;97094.60;1718612;83;21095;-72
2022/05/24 11:35:44;;;;;;;4.65;2.45;;;;;;;29.28;25.77;97090.13;1707917;83;20985;-71
2022/05/24 11:38:26;;;;;;;4.05;2.30;;;;;;;29.18;26.38;97089.05;1678811;85;21000;-71
2022/05/24 11:41:07;;;;;;;6.87;2.50;;;;;;;29.01;26.20;97082.38;1714466;83;21000;-71
2022/05/24 11:43:46;;;;;;;5.50;2.60;;;;;;;28.64;26.98;97091.72;1718726;83;21109;-72
2022/05/24 11:46:37;;;;;;;7.97;3.70;;;;;;;29.01;27.17;97091.10;1721809;83;20944;-71
2022/05/24 11:49:06;;;;;;;12.07;2.90;;;;;;;29.37;27.45;97087.64;1668678;85;21658;-72
2022/05/24 11:51:48;;;;;;;4.20;2.87;;;;;;;29.58;27.37;97086.05;1704811;82;21008;-71
2022/05/24 11:54:24;;;;;;;8.48;3.52;;;;;;;29.44;26.84;97086.38;1700780;83;21435;-71
2022/05/24 11:57:01;;;;;;;8.38;2.92;;;;;;;29.38;26.28;97089.33;1707224;82;21054;-70
2022/05/24 11:59:48;;;;;;;4.12;3.20;;;;;;;29.29;26.35;97091.31;1703303;83;20992;-71
2022/05/24 12:02:32;;;;;;;6.00;3.12;;;;;;;29.19;26.47;97088.02;1737376;82;21093;-71
2022/05/24 12:08:08;;;;;;;119.95;26.52;;;;;;;28.64;27.63;97088.99;1709550;84;20986;-71
2022/05/24 12:10:51;;;;;;;5.40;3.75;;;;;;;27.90;28.77;97084.89;1706954;84;21070;-71
2022/05/24 12:13:30;;;;;;;7.50;4.22;;;;;;;27.31;29.21;97095.65;1661331;86;21070;-71
2022/05/24 12:16:00;;;;;;;6.85;3.83;;;;;;;26.78;29.49;97096.04;1664242;86;21075;-71
2022/05/24 12:18:39;;;;;;;4.08;3.30;;;;;;;26.13;29.48;97098.00;1665252;85;21063;-78
2022/05/24 12:21:05;;;;;;;5.55;3.27;;;;;;;25.72;29.89;97089.23;1673900;84;21057;-77
2022/05/24 12:23:38;;;;;;;9.20;4.50;;;;;;;25.76;30.09;97097.40;1684282;84;20989;-78
2022/05/24 12:26:08;;;;;;;4.47;2.73;;;;;;;25.61;30.79;97095.80;1664622;86;21052;-77
2022/05/24 12:28:38;;;;;;;28.52;7.08;;;;;;;25.83;30.70;97094.35;1663835;84;21036;-77
2022/05/24 12:31:17;;;;;;;56.35;14.03;;;;;;;26.45;31.81;97096.89;1664401;86;21462;-77
2022/05/24 12:33:50;;;;;;;24.90;9.58;;;;;;;26.89;30.71;97094.31;1676764;84;20981;-78
2022/05/24 12:36:31;;;;;;;23.95;12.43;;;;;;;27.71;30.62;97093.82;1692187;85;21157;-78
2022/05/24 12:39:01;;;;;;;4.37;2.60;;;;;;;28.54;29.19;97084.31;1680587;85;21694;-85
2022/05/24 12:41:34;;;;;;;5.15;2.17;;;;;;;28.99;26.46;97088.02;1667238;84;21020;-85
2022/05/24 12:44:24;;;;;;;3.33;2.30;;;;;;;29.36;25.50;97090.88;1692182;85;21067;-86
2022/05/24 12:46:57;;;;;;;20.20;5.90;;;;;;;29.74;26.55;97088.59;1683914;84;21453;-84
2022/05/24 12:49:27;;;;;;;10.70;3.87;;;;;;;29.90;26.79;97092.97;1692602;85;21045;-86
2022/05/24 12:52:18;;;;;;;3.87;2.83;;;;;;;30.08;25.23;97090.35;1690492;85;21073;-86
2022/05/24 12:54:46;;;;;;;5.05;2.40;;;;;;;30.23;26.40;97093.08;1692021;85;21478;-85
2022/05/24 12:57:19;;;;;;;3.40;2.37;;;;;;;30.34;25.21;97089.51;1673743;84;21012;-86
2022/05/24 12:59:55;;;;;;;5.50;2.87;;;;;;;30.50;24.72;97086.50;1664382;86;21095;-87
2022/05/24 13:02:32;;;;;;;7.15;3.87;;;;;;;30.47;24.73;97087.42;1689876;85;21004;-86
2022/05/24 13:05:10;;;;;;;4.40;2.72;;;;;;;30.68;24.62;97086.57;1692273;85;21040;-86
2022/05/24 13:07:49;;;;;;;6.22;5.45;;;;;;;30.95;24.90;97092.28;1703745;84;21018;-86
2022/05/24 13:10:22;;;;;;;5.80;2.75;;;;;;;31.13;24.32;97097.80;1709403;84;21058;-86
2022/05/24 13:13:15;;;;;;;6.62;2.60;;;;;;;31.06;23.48;97088.98;1709674;84;21007;-86